createdAt,value
2018-12-13T00:01:37.121Z,13.87
2018-12-13T00:04:05.307Z,14.37
2018-12-13T00:06:33.594Z,13.80
2018-12-13T00:09:01.716Z,13.60
2018-12-13T00:11:29.780Z,13.33
2018-12-13T00:13:57.811Z,14.60
2018-12-13T00:16:25.938Z,13.87
2018-12-13T00:18:53.987Z,16.83
2018-12-13T00:21:22.054Z,14.80
2018-12-13T00:23:50.124Z,15.03
2018-12-13T00:26:18.198Z,14.23
2018-12-13T00:28:46.280Z,13.63
2018-12-13T00:31:14.344Z,14.37
2018-12-13T00:33:42.385Z,12.47
2018-12-13T00:36:10.441Z,13.40
2018-12-13T00:38:38.515Z,13.33
2018-12-13T00:41:06.567Z,13.00
2018-12-13T00:43:34.661Z,13.83
2018-12-13T00:46:02.775Z,13.23
2018-12-13T00:48:30.857Z,13.80
2018-12-13T00:50:58.909Z,13.70
2018-12-13T00:53:26.979Z,14.83
2018-12-13T00:55:55.063Z,14.90
2018-12-13T00:58:23.182Z,14.63
2018-12-13T01:00:51.218Z,13.77
2018-12-13T01:03:19.436Z,14.00
2018-12-13T01:05:47.480Z,14.30
2018-12-13T01:08:15.558Z,14.27
2018-12-13T01:10:43.678Z,14.90
2018-12-13T01:13:11.708Z,15.53
2018-12-13T01:15:39.805Z,15.13
2018-12-13T01:18:07.858Z,16.17
2018-12-13T01:20:35.906Z,15.53
2018-12-13T01:23:03.987Z,15.73
2018-12-13T01:25:32.097Z,15.83
2018-12-13T01:28:00.161Z,16.27
2018-12-13T01:30:28.226Z,15.40
2018-12-13T01:32:56.265Z,16.07
2018-12-13T01:35:24.333Z,16.53
2018-12-13T01:37:52.419Z,17.47
2018-12-13T01:40:20.472Z,18.27
2018-12-13T01:42:48.546Z,18.40
2018-12-13T01:45:16.578Z,17.23
2018-12-13T01:47:44.614Z,14.97
2018-12-13T01:50:12.695Z,12.93
2018-12-13T01:52:40.761Z,12.13
2018-12-13T01:55:08.814Z,11.93
2018-12-13T01:57:36.920Z,10.60
2018-12-13T02:00:05.248Z,10.37
2018-12-13T02:02:33.397Z,10.13
2018-12-13T02:05:01.509Z,9.23
2018-12-13T02:07:29.549Z,8.63
2018-12-13T02:09:57.618Z,8.13
2018-12-13T02:12:25.681Z,7.80
2018-12-13T02:14:53.755Z,8.73
2018-12-13T02:17:21.808Z,8.20
2018-12-13T02:19:49.868Z,7.83
2018-12-13T02:22:17.924Z,7.83
2018-12-13T02:24:45.954Z,8.20
2018-12-13T02:27:14.065Z,8.30
2018-12-13T02:29:42.109Z,6.80
2018-12-13T02:32:10.261Z,7.27
2018-12-13T02:34:38.325Z,6.57
2018-12-13T02:37:06.551Z,7.00
2018-12-13T02:39:34.746Z,8.00
2018-12-13T02:42:02.921Z,7.47
2018-12-13T02:44:30.933Z,7.50
2018-12-13T02:46:59.066Z,7.37
2018-12-13T02:49:27.101Z,7.50
2018-12-13T02:51:55.174Z,7.97
2018-12-13T02:54:23.215Z,7.17
2018-12-13T02:56:51.280Z,6.97
2018-12-13T02:59:19.312Z,8.27
2018-12-13T03:01:47.361Z,7.63
2018-12-13T03:04:15.449Z,7.20
2018-12-13T03:06:43.527Z,8.67
2018-12-13T03:09:11.620Z,8.13
2018-12-13T03:11:39.673Z,8.53
2018-12-13T03:14:07.791Z,9.10
2018-12-13T03:16:35.836Z,9.17
2018-12-13T03:19:03.891Z,8.43
2018-12-13T03:21:31.951Z,9.77
2018-12-13T03:24:00.014Z,10.13
2018-12-13T03:26:28.077Z,10.10
2018-12-13T03:28:56.158Z,9.80
2018-12-13T03:31:24.203Z,10.67
2018-12-13T03:33:52.310Z,10.20
2018-12-13T03:36:20.372Z,10.37
2018-12-13T03:38:48.453Z,11.50
2018-12-13T03:41:16.548Z,11.97
2018-12-13T03:43:44.611Z,13.63
2018-12-13T03:46:12.673Z,13.17
2018-12-13T03:48:40.761Z,13.63
2018-12-13T03:51:08.833Z,12.97
2018-12-13T03:53:36.918Z,12.70
2018-12-13T03:56:04.993Z,14.03
2018-12-13T03:58:33.027Z,14.57
2018-12-13T04:01:01.083Z,13.73
2018-12-13T04:03:29.185Z,14.37
2018-12-13T04:05:57.279Z,14.67
2018-12-13T04:08:25.307Z,13.97
2018-12-13T04:10:53.368Z,14.30
2018-12-13T04:13:21.413Z,14.30
2018-12-13T04:15:49.455Z,14.57
2018-12-13T04:18:17.663Z,15.33
2018-12-13T04:20:45.842Z,14.07
2018-12-13T04:23:13.921Z,15.43
2018-12-13T04:25:41.997Z,15.23
2018-12-13T04:28:10.067Z,14.93
2018-12-13T04:30:38.136Z,15.17
2018-12-13T04:33:06.179Z,15.10
2018-12-13T04:35:34.323Z,15.60
2018-12-13T04:38:02.382Z,15.87
2018-12-13T04:40:30.423Z,15.90
2018-12-13T04:42:58.477Z,16.60
2018-12-13T04:45:26.506Z,14.87
2018-12-13T04:47:54.570Z,16.23
2018-12-13T04:50:22.623Z,15.37
2018-12-13T04:52:50.680Z,15.43
2018-12-13T04:55:18.742Z,15.83
2018-12-13T04:57:46.772Z,15.03
2018-12-13T05:00:14.827Z,16.13
2018-12-13T05:02:42.897Z,16.33
2018-12-13T05:05:10.942Z,15.60
2018-12-13T05:07:41.691Z,15.70
2018-12-13T05:10:09.158Z,15.67
2018-12-13T05:12:37.228Z,15.37
2018-12-13T05:15:05.389Z,14.67
2018-12-13T05:17:33.476Z,14.90
2018-12-13T05:20:01.565Z,15.67
2018-12-13T05:22:29.622Z,16.60
2018-12-13T05:24:57.689Z,16.87
2018-12-13T05:27:25.790Z,16.83
2018-12-13T05:29:53.929Z,15.90
2018-12-13T05:32:21.988Z,17.43
2018-12-13T05:34:50.059Z,17.63
2018-12-13T05:37:18.125Z,16.47
2018-12-13T05:39:46.152Z,17.37
2018-12-13T05:42:14.233Z,16.97
2018-12-13T05:44:42.274Z,16.97
2018-12-13T05:47:10.339Z,17.73
2018-12-13T05:49:38.427Z,17.97
2018-12-13T05:52:06.464Z,17.50
2018-12-13T05:54:34.536Z,18.33
2018-12-13T05:57:02.582Z,18.43
2018-12-13T05:59:30.646Z,19.57
2018-12-13T06:01:58.717Z,19.57
2018-12-13T06:04:26.760Z,20.37
2018-12-13T06:06:54.844Z,20.63
2018-12-13T06:09:23.009Z,20.93
2018-12-13T06:11:51.084Z,20.10
2018-12-13T06:14:19.142Z,20.40
2018-12-13T06:16:47.200Z,21.87
2018-12-13T06:19:15.256Z,20.47
2018-12-13T06:21:43.364Z,20.07
2018-12-13T06:24:11.435Z,21.33
2018-12-13T06:26:39.486Z,20.87
2018-12-13T06:29:07.588Z,21.53
2018-12-13T06:31:35.650Z,20.97
2018-12-13T06:34:03.777Z,20.43
2018-12-13T06:36:31.865Z,24.23
2018-12-13T06:38:59.925Z,22.20
2018-12-13T06:41:28.015Z,22.77
2018-12-13T06:43:56.057Z,24.00
2018-12-13T06:46:24.094Z,23.70
2018-12-13T06:48:52.166Z,23.53
2018-12-13T06:51:20.244Z,24.73
2018-12-13T06:53:48.348Z,24.23
2018-12-13T06:56:16.392Z,19.93
2018-12-13T06:58:44.488Z,24.23
2018-12-13T07:01:12.546Z,24.20
2018-12-13T07:03:40.612Z,24.50
2018-12-13T07:06:08.666Z,24.57
2018-12-13T07:08:36.749Z,24.30
2018-12-13T07:11:04.805Z,23.67
2018-12-13T07:13:32.864Z,23.23
2018-12-13T07:16:00.960Z,23.70
2018-12-13T07:18:28.993Z,21.60
2018-12-13T07:20:57.055Z,23.13
2018-12-13T07:23:25.165Z,22.50
2018-12-13T07:25:53.247Z,21.63
2018-12-13T07:28:21.307Z,20.87
2018-12-13T07:30:49.389Z,22.07
2018-12-13T07:33:17.468Z,20.63
2018-12-13T07:35:45.513Z,22.80
2018-12-13T07:38:14.482Z,20.90
2018-12-13T07:40:42.810Z,20.50
2018-12-13T07:43:10.914Z,21.97
2018-12-13T07:45:38.957Z,19.67
2018-12-13T07:48:07.163Z,20.60
2018-12-13T07:50:35.223Z,20.17
2018-12-13T07:53:03.305Z,18.43
2018-12-13T07:55:31.375Z,19.67
2018-12-13T07:57:59.437Z,18.37
2018-12-13T08:00:27.481Z,19.07
2018-12-13T08:02:55.543Z,19.17
2018-12-13T08:05:23.612Z,19.23
2018-12-13T08:07:51.678Z,18.83
2018-12-13T08:10:19.740Z,18.63
2018-12-13T08:12:47.791Z,19.57
2018-12-13T08:15:15.872Z,19.80
2018-12-13T08:17:43.928Z,20.30
2018-12-13T08:20:11.994Z,18.87
2018-12-13T08:22:40.060Z,20.07
2018-12-13T08:25:08.129Z,19.40
2018-12-13T08:27:36.185Z,18.30
2018-12-13T08:30:04.626Z,19.43
2018-12-13T08:32:32.735Z,19.07
2018-12-13T08:35:00.811Z,17.87
2018-12-13T08:37:28.845Z,18.43
2018-12-13T08:39:56.910Z,18.10
2018-12-13T08:42:24.957Z,17.27
2018-12-13T08:44:53.129Z,17.47
2018-12-13T08:47:21.167Z,17.47
2018-12-13T08:49:49.197Z,16.23
2018-12-13T08:52:17.256Z,16.20
2018-12-13T08:54:45.345Z,17.13
2018-12-13T08:57:13.413Z,16.87
2018-12-13T08:59:41.503Z,16.70
2018-12-13T09:02:09.536Z,17.27
2018-12-13T09:04:37.631Z,16.63
2018-12-13T09:07:05.685Z,17.10
2018-12-13T09:09:33.792Z,16.70
2018-12-13T09:12:01.874Z,18.07
2018-12-13T09:14:29.938Z,18.73
2018-12-13T09:16:58.004Z,17.13
2018-12-13T09:19:26.036Z,17.07
2018-12-13T09:21:54.082Z,18.43
2018-12-13T09:24:22.145Z,18.23
2018-12-13T09:26:50.181Z,17.27
2018-12-13T09:29:18.257Z,18.10
2018-12-13T09:31:46.343Z,18.83
2018-12-13T09:34:14.415Z,20.23
2018-12-13T09:36:42.462Z,18.47
2018-12-13T09:39:10.535Z,19.43
2018-12-13T09:41:38.707Z,19.60
2018-12-13T09:44:08.889Z,17.27
2018-12-13T09:46:36.949Z,18.43
2018-12-13T09:49:05.041Z,18.13
2018-12-13T09:51:33.428Z,18.73
2018-12-13T09:54:01.521Z,19.13
2018-12-13T09:56:29.563Z,17.57
2018-12-13T09:58:57.627Z,18.37
2018-12-13T10:01:25.690Z,17.20
2018-12-13T10:03:53.779Z,15.27
2018-12-13T10:06:21.852Z,17.50
2018-12-13T10:08:49.918Z,18.13
2018-12-13T10:11:17.955Z,17.50
2018-12-13T10:13:46.052Z,16.87
2018-12-13T10:16:14.116Z,17.30
2018-12-13T10:18:42.241Z,16.40
2018-12-13T10:23:48.634Z,17.20
2018-12-13T10:26:16.706Z,15.07
2018-12-13T10:28:44.774Z,15.90
2018-12-13T10:31:13.047Z,14.90
2018-12-13T10:33:41.062Z,16.13
2018-12-13T10:36:09.142Z,14.87
2018-12-13T10:38:37.220Z,16.07
2018-12-13T10:41:05.246Z,15.57
2018-12-13T10:43:33.380Z,15.27
2018-12-13T10:46:01.428Z,15.20
2018-12-13T10:48:29.486Z,15.27
2018-12-13T10:50:57.650Z,14.93
2018-12-13T10:53:25.781Z,15.63
2018-12-13T10:55:53.833Z,14.03
2018-12-13T10:58:21.913Z,14.37
2018-12-13T11:00:55.716Z,13.70
2018-12-13T11:03:29.323Z,13.43
2018-12-13T11:05:57.369Z,14.30
2018-12-13T11:08:25.567Z,13.70
2018-12-13T11:10:53.742Z,13.43
2018-12-13T11:13:22.291Z,13.03
2018-12-13T11:15:50.340Z,13.90
2018-12-13T11:18:18.472Z,13.10
2018-12-13T11:20:46.648Z,12.53
2018-12-13T11:23:14.731Z,13.80
2018-12-13T11:25:42.810Z,12.47
2018-12-13T11:28:16.734Z,12.07
2018-12-13T11:30:44.908Z,13.53
2018-12-13T11:33:13.011Z,13.40
2018-12-13T11:35:41.060Z,12.50
2018-12-13T11:38:09.152Z,12.93
2018-12-13T11:40:37.235Z,13.33
2018-12-13T11:43:05.274Z,12.10
2018-12-13T11:45:33.364Z,12.63
2018-12-13T11:48:01.417Z,12.00
2018-12-13T11:50:29.511Z,12.40
2018-12-13T11:52:57.687Z,12.50
2018-12-13T11:55:31.473Z,11.70
2018-12-13T11:57:59.535Z,11.43
2018-12-13T12:00:27.665Z,12.80
2018-12-13T12:02:55.717Z,13.63
2018-12-13T12:05:23.785Z,12.13
2018-12-13T12:07:51.912Z,11.57
2018-12-13T12:10:20.001Z,11.63
2018-12-13T12:12:48.046Z,11.37
2018-12-13T12:15:16.128Z,10.93
2018-12-13T12:17:44.216Z,11.13
2018-12-13T12:20:12.524Z,10.73
2018-12-13T12:22:40.558Z,10.80
2018-12-13T12:25:08.620Z,12.90
2018-12-13T12:27:36.704Z,11.00
2018-12-13T12:30:05.576Z,11.70
2018-12-13T12:32:33.617Z,11.73
2018-12-13T12:35:01.707Z,11.90
2018-12-13T12:37:29.935Z,12.23
2018-12-13T12:39:58.014Z,12.13
2018-12-13T12:42:26.092Z,12.80
2018-12-13T12:44:54.130Z,12.03
2018-12-13T12:47:22.200Z,12.87
2018-12-13T12:49:50.275Z,14.03
2018-12-13T12:52:18.335Z,11.77
2018-12-13T12:54:46.387Z,12.67
2018-12-13T12:57:14.440Z,12.47
2018-12-13T12:59:42.522Z,12.17
2018-12-13T13:02:10.581Z,11.60
2018-12-13T13:04:38.643Z,12.87
2018-12-13T13:07:06.680Z,14.37
2018-12-13T13:09:34.732Z,13.37
2018-12-13T13:12:02.853Z,14.33
2018-12-13T13:14:30.892Z,14.43
2018-12-13T13:16:58.964Z,14.30
2018-12-13T13:19:27.021Z,14.23
2018-12-13T13:21:55.090Z,14.30
2018-12-13T13:24:23.134Z,13.80
2018-12-13T13:26:51.217Z,13.87
2018-12-13T13:29:19.271Z,13.10
2018-12-13T13:31:47.350Z,14.80
2018-12-13T13:34:15.473Z,14.07
2018-12-13T13:36:43.515Z,13.57
2018-12-13T13:39:11.589Z,15.13
2018-12-13T13:41:39.641Z,14.70
2018-12-13T13:44:07.705Z,17.70
2018-12-13T13:46:35.797Z,19.53
2018-12-13T13:49:03.849Z,17.50
2018-12-13T13:51:31.899Z,18.37
2018-12-13T13:53:59.929Z,18.20
2018-12-13T13:56:27.988Z,17.20
2018-12-13T13:58:56.089Z,17.47
2018-12-13T14:01:24.140Z,17.10
2018-12-13T14:03:52.190Z,17.47
2018-12-13T14:06:20.260Z,17.07
2018-12-13T14:08:48.330Z,17.03
2018-12-13T14:11:16.392Z,16.17
2018-12-13T14:13:44.444Z,16.53
2018-12-13T14:16:12.516Z,16.77
2018-12-13T14:18:40.612Z,19.60
2018-12-13T14:21:08.677Z,17.47
2018-12-13T14:23:36.762Z,16.87
2018-12-13T14:26:04.846Z,17.97
2018-12-13T14:28:32.989Z,17.60
2018-12-13T14:31:01.167Z,19.07
2018-12-13T14:33:29.257Z,18.57
2018-12-13T14:35:57.329Z,18.80
2018-12-13T14:38:25.377Z,19.67
2018-12-13T14:40:53.439Z,18.60
2018-12-13T14:43:21.511Z,18.97
2018-12-13T14:45:49.558Z,19.03
2018-12-13T14:48:17.661Z,18.13
2018-12-13T14:50:45.772Z,18.67
2018-12-13T14:53:13.895Z,20.97
2018-12-13T14:55:41.970Z,18.63
2018-12-13T14:58:10.163Z,20.27
2018-12-13T15:00:38.252Z,20.13
2018-12-13T15:03:06.342Z,20.70
2018-12-13T15:05:34.462Z,19.17
2018-12-13T15:08:02.537Z,22.32
2018-12-13T15:10:30.579Z,19.63
2018-12-13T15:12:58.636Z,18.50
2018-12-13T15:15:26.683Z,20.07
2018-12-13T15:17:54.775Z,21.53
2018-12-13T15:20:22.818Z,20.50
2018-12-13T15:22:50.884Z,20.10
2018-12-13T15:25:18.942Z,19.27
2018-12-13T15:27:47.016Z,21.20
2018-12-13T15:30:15.180Z,21.00
2018-12-13T15:32:43.251Z,19.60
2018-12-13T15:35:11.350Z,20.20
2018-12-13T15:37:39.413Z,21.47
2018-12-13T15:40:07.527Z,19.17
2018-12-13T15:42:35.600Z,20.77
2018-12-13T15:45:03.880Z,20.43
2018-12-13T15:47:31.997Z,20.73
2018-12-13T15:50:00.065Z,20.70
2018-12-13T15:52:28.096Z,22.30
2018-12-13T15:54:56.175Z,21.63
2018-12-13T15:57:24.263Z,23.37
2018-12-13T15:59:52.343Z,20.80
2018-12-13T16:02:20.408Z,20.07
2018-12-13T16:04:48.457Z,20.63
2018-12-13T16:07:16.557Z,21.93
2018-12-13T16:09:44.605Z,21.53
2018-12-13T16:12:12.671Z,21.90
2018-12-13T16:14:40.751Z,21.17
2018-12-13T16:17:08.944Z,20.40
2018-12-13T16:19:36.999Z,20.93
2018-12-13T16:22:05.088Z,20.93
2018-12-13T16:24:33.281Z,21.97
2018-12-13T16:27:01.338Z,20.40
2018-12-13T16:29:29.413Z,21.03
2018-12-13T16:31:57.501Z,21.70
2018-12-13T16:34:25.579Z,21.33
2018-12-13T16:36:53.620Z,20.03
2018-12-13T16:39:21.660Z,21.20
2018-12-13T16:41:49.749Z,21.33
2018-12-13T16:44:17.799Z,20.43
2018-12-13T16:46:45.845Z,21.53
2018-12-13T16:49:13.895Z,21.67
2018-12-13T16:51:41.963Z,20.23
2018-12-13T16:54:10.029Z,19.17
2018-12-13T16:56:38.127Z,19.67
2018-12-13T16:59:06.202Z,20.77
2018-12-13T17:01:34.286Z,20.83
2018-12-13T17:04:02.381Z,19.90
2018-12-13T17:06:30.459Z,19.73
2018-12-13T17:08:58.516Z,20.20
2018-12-13T17:11:26.609Z,21.10
2018-12-13T17:13:54.671Z,21.53
2018-12-13T17:16:22.746Z,20.33
2018-12-13T17:18:51.106Z,19.90
2018-12-13T17:23:59.316Z,20.27
2018-12-13T17:26:27.419Z,20.83
2018-12-13T17:28:55.494Z,22.90
2018-12-13T17:31:23.522Z,21.50
2018-12-13T17:33:51.598Z,22.67
2018-12-13T17:36:19.696Z,22.03
2018-12-13T17:38:47.966Z,23.17
2018-12-13T17:41:16.057Z,22.17
2018-12-13T17:43:44.084Z,22.53
2018-12-13T17:46:12.152Z,22.47
2018-12-13T17:48:40.186Z,22.47
2018-12-13T17:51:08.278Z,23.37
2018-12-13T17:53:36.355Z,21.23
2018-12-13T17:56:04.465Z,20.87
2018-12-13T17:58:32.585Z,20.27
2018-12-13T18:01:00.674Z,21.30
2018-12-13T18:03:28.718Z,19.33
2018-12-13T18:05:56.788Z,19.70
2018-12-13T18:08:24.845Z,20.73
2018-12-13T18:10:52.929Z,21.17
2018-12-13T18:13:21.005Z,20.50
2018-12-13T18:15:49.124Z,20.07
2018-12-13T18:18:17.237Z,18.73
2018-12-13T18:20:45.288Z,20.17
2018-12-13T18:23:13.373Z,18.93
2018-12-13T18:25:41.405Z,19.37
2018-12-13T18:28:09.455Z,20.97
2018-12-13T18:30:37.519Z,20.73
2018-12-13T18:33:05.619Z,19.40
2018-12-13T18:35:33.692Z,20.73
2018-12-13T18:38:01.815Z,21.83
2018-12-13T18:40:35.511Z,22.50
2018-12-13T18:42:59.963Z,24.03
2018-12-13T18:45:30.343Z,24.47
2018-12-13T18:47:58.435Z,23.33
2018-12-13T18:50:26.551Z,22.67
2018-12-13T18:52:54.613Z,22.60
2018-12-13T18:55:22.664Z,23.27
2018-12-13T18:57:50.970Z,23.50
2018-12-13T19:00:19.048Z,23.17
2018-12-13T19:02:47.204Z,24.27
2018-12-13T19:05:15.243Z,24.60
2018-12-13T19:07:43.332Z,23.07
2018-12-13T19:10:11.432Z,24.20
2018-12-13T19:12:39.483Z,23.70
2018-12-13T19:15:07.670Z,22.63
2018-12-13T19:17:35.733Z,23.07
2018-12-13T19:20:03.962Z,24.40
2018-12-13T19:22:32.008Z,24.87
2018-12-13T19:25:00.083Z,24.63
2018-12-13T19:27:28.180Z,24.37
2018-12-13T19:29:56.233Z,23.97
2018-12-13T19:32:24.339Z,24.17
2018-12-13T19:34:52.412Z,22.33
2018-12-13T19:37:20.488Z,22.53
2018-12-13T19:39:48.556Z,22.70
2018-12-13T19:42:16.615Z,20.73
2018-12-13T19:44:44.787Z,21.13
2018-12-13T19:47:12.834Z,21.17
2018-12-13T19:49:40.896Z,20.90
2018-12-13T19:52:08.943Z,21.80
2018-12-13T19:54:37.032Z,20.57
2018-12-13T19:57:05.101Z,21.33
2018-12-13T19:59:33.202Z,21.13
2018-12-13T20:02:01.357Z,21.33
2018-12-13T20:04:29.433Z,21.40
2018-12-13T20:06:57.543Z,21.27
2018-12-13T20:09:25.724Z,22.67
2018-12-13T20:11:53.785Z,21.40
2018-12-13T20:14:21.825Z,20.63
2018-12-13T20:16:49.893Z,20.37
2018-12-13T20:19:17.994Z,19.80
2018-12-13T20:21:46.204Z,19.97
2018-12-13T20:24:14.288Z,19.27
2018-12-13T20:26:42.534Z,19.13
2018-12-13T20:29:10.570Z,19.43
2018-12-13T20:31:38.633Z,18.67
2018-12-13T20:34:06.698Z,19.20
2018-12-13T20:36:34.779Z,18.60
2018-12-13T20:39:03.591Z,19.70
2018-12-13T20:41:31.643Z,20.63
2018-12-13T20:43:59.718Z,19.70
2018-12-13T20:46:27.776Z,18.80
2018-12-13T20:48:55.883Z,19.67
2018-12-13T20:51:23.964Z,18.93
2018-12-13T20:53:52.089Z,20.27
2018-12-13T20:56:20.152Z,22.70
2018-12-13T20:58:48.288Z,22.00
2018-12-13T21:01:16.361Z,21.87
2018-12-13T21:03:44.491Z,21.40
2018-12-13T21:06:12.557Z,22.27
2018-12-13T21:08:40.662Z,19.83
2018-12-13T21:11:08.823Z,21.60
2018-12-13T21:13:36.874Z,20.37
2018-12-13T21:16:04.953Z,21.60
2018-12-13T21:18:33.060Z,22.33
2018-12-13T21:21:01.124Z,21.03
2018-12-13T21:23:29.209Z,21.17
2018-12-13T21:25:57.282Z,21.43
2018-12-13T21:28:25.388Z,22.53
2018-12-13T21:30:53.428Z,21.47
2018-12-13T21:33:21.509Z,23.43
2018-12-13T21:35:49.610Z,19.90
2018-12-13T21:38:17.665Z,18.90
2018-12-13T21:40:45.763Z,21.03
2018-12-13T21:43:13.840Z,19.40
2018-12-13T21:45:41.885Z,20.03
2018-12-13T21:48:09.956Z,20.80
2018-12-13T21:50:38.031Z,20.27
2018-12-13T21:53:06.135Z,20.47
2018-12-13T21:55:34.178Z,21.77
2018-12-13T21:58:02.326Z,21.63
2018-12-13T22:00:30.438Z,21.90
2018-12-13T22:02:58.490Z,20.93
2018-12-13T22:05:26.532Z,21.37
2018-12-13T22:07:54.598Z,21.10
2018-12-13T22:10:22.691Z,22.93
2018-12-13T22:12:50.758Z,22.20
2018-12-13T22:15:18.947Z,21.57
2018-12-13T22:17:47.018Z,21.67
2018-12-13T22:20:15.098Z,21.37
2018-12-13T22:22:43.163Z,20.53
2018-12-13T22:25:11.297Z,21.37
2018-12-13T22:27:39.437Z,21.30
2018-12-13T22:30:07.638Z,22.17
2018-12-13T22:32:35.725Z,21.93
2018-12-13T22:35:03.914Z,22.03
2018-12-13T22:37:31.987Z,22.30
2018-12-13T22:40:00.082Z,20.87
2018-12-13T22:42:28.151Z,20.47
2018-12-13T22:44:56.268Z,20.07
2018-12-13T22:47:24.333Z,20.37
2018-12-13T22:49:52.432Z,19.47
2018-12-13T22:52:20.515Z,20.37
2018-12-13T22:54:48.593Z,20.50
2018-12-13T22:57:16.663Z,18.63
2018-12-13T22:59:44.728Z,20.73
2018-12-13T23:02:12.797Z,20.13
2018-12-13T23:04:40.899Z,18.63
2018-12-13T23:07:08.949Z,19.07
2018-12-13T23:09:36.997Z,20.53
2018-12-13T23:12:05.083Z,20.00
2018-12-13T23:14:33.324Z,20.07
2018-12-13T23:17:01.535Z,18.13
2018-12-13T23:19:29.582Z,19.33
2018-12-13T23:21:57.640Z,21.13
2018-12-13T23:24:25.685Z,20.00
2018-12-13T23:26:53.745Z,21.20
2018-12-13T23:29:21.799Z,22.47
2018-12-13T23:31:49.899Z,23.53
2018-12-13T23:34:17.987Z,23.73
2018-12-13T23:36:46.040Z,22.60
2018-12-13T23:39:14.124Z,23.47
2018-12-13T23:41:42.190Z,23.33
2018-12-13T23:44:10.248Z,23.63
2018-12-13T23:46:38.302Z,22.10
2018-12-13T23:49:06.392Z,22.20
2018-12-13T23:51:34.448Z,21.17
2018-12-13T23:54:02.556Z,21.43
2018-12-13T23:56:30.616Z,21.77
2018-12-13T23:58:58.900Z,20.50
